sensor_id;sensor_type;location;lat;lon;timestamp;pressure;altitude;pressure_sealevel;temperature
19568;BMP280;9930;49.240;8.548;2022-09-01T00:00:13;100685.88;;;22.57
19568;BMP280;9930;49.240;8.548;2022-09-01T00:02:39;100694.50;;;22.62
19568;BMP280;9930;49.240;8.548;2022-09-01T00:05:10;100682.41;;;22.55
19568;BMP280;9930;49.240;8.548;2022-09-01T00:07:37;100692.78;;;22.58
19568;BMP280;9930;49.240;8.548;2022-09-01T00:10:06;100693.66;;;22.57
19568;BMP280;9930;49.240;8.548;2022-09-01T00:12:36;100699.72;;;22.56
19568;BMP280;9930;49.240;8.548;2022-09-01T00:15:05;100698.00;;;22.56
19568;BMP280;9930;49.240;8.548;2022-09-01T00:17:31;100699.72;;;22.56
19568;BMP280;9930;49.240;8.548;2022-09-01T00:19:58;100691.13;;;22.49
19568;BMP280;9930;49.240;8.548;2022-09-01T00:22:28;100694.53;;;22.54
19568;BMP280;9930;49.240;8.548;2022-09-01T00:24:55;100704.97;;;22.53
19568;BMP280;9930;49.240;8.548;2022-09-01T00:27:28;100703.22;;;22.52
19568;BMP280;9930;49.240;8.548;2022-09-01T00:30:00;100690.31;;;22.41
19568;BMP280;9930;49.240;8.548;2022-09-01T00:32:28;100700.66;;;22.47
19568;BMP280;9930;49.240;8.548;2022-09-01T00:34:55;100693.75;;;22.43
19568;BMP280;9930;49.240;8.548;2022-09-01T00:37:21;100695.50;;;22.43
19568;BMP280;9930;49.240;8.548;2022-09-01T00:39:49;100679.94;;;22.37
19568;BMP280;9930;49.240;8.548;2022-09-01T00:42:15;100691.19;;;22.40
19568;BMP280;9930;49.240;8.548;2022-09-01T00:44:41;100689.44;;;22.39
19568;BMP280;9930;49.240;8.548;2022-09-01T00:47:07;100692.06;;;22.36
19568;BMP280;9930;49.240;8.548;2022-09-01T00:49:39;100696.41;;;22.36
19568;BMP280;9930;49.240;8.548;2022-09-01T00:52:35;100685.19;;;22.27
19568;BMP280;9930;49.240;8.548;2022-09-01T00:55:11;100695.53;;;22.35
19568;BMP280;9930;49.240;8.548;2022-09-01T00:57:38;100699.88;;;22.35
19568;BMP280;9930;49.240;8.548;2022-09-01T01:00:17;100693.81;;;22.33
19568;BMP280;9930;49.240;8.548;2022-09-01T01:02:47;100702.47;;;22.33
19568;BMP280;9930;49.240;8.548;2022-09-01T01:05:14;100705.94;;;22.34
19568;BMP280;9930;49.240;8.548;2022-09-01T01:07:43;100696.44;;;22.28
19568;BMP280;9930;49.240;8.548;2022-09-01T01:10:13;100691.28;;;22.25
19568;BMP280;9930;49.240;8.548;2022-09-01T01:12:43;100707.69;;;22.32
19568;BMP280;9930;49.240;8.548;2022-09-01T01:15:19;100709.41;;;22.31
19568;BMP280;9930;49.240;8.548;2022-09-01T01:17:45;100696.47;;;22.26
19568;BMP280;9930;49.240;8.548;2022-09-01T01:20:14;100693.84;;;22.26
19568;BMP280;9930;49.240;8.548;2022-09-01T01:25:57;100692.16;;;22.22
19568;BMP280;9930;49.240;8.548;2022-09-01T01:28:29;100695.59;;;22.24
19568;BMP280;9930;49.240;8.548;2022-09-01T01:31:09;100697.34;;;22.22
19568;BMP280;9930;49.240;8.548;2022-09-01T01:33:46;100692.16;;;22.19
19568;BMP280;9930;49.240;8.548;2022-09-01T01:36:28;100688.75;;;22.13
19568;BMP280;9930;49.240;8.548;2022-09-01T01:39:10;100681.84;;;22.07
19568;BMP280;9930;49.240;8.548;2022-09-01T01:41:40;100698.28;;;22.09
19568;BMP280;9930;49.240;8.548;2022-09-01T01:44:14;100698.28;;;22.06
19568;BMP280;9930;49.240;8.548;2022-09-01T01:46:47;100684.44;;;22.01
19568;BMP280;9930;49.240;8.548;2022-09-01T01:49:18;100694.81;;;22.01
19568;BMP280;9930;49.240;8.548;2022-09-01T01:51:49;100683.59;;;21.93
19568;BMP280;9930;49.240;8.548;2022-09-01T01:54:19;100693.97;;;21.97
19568;BMP280;9930;49.240;8.548;2022-09-01T01:56:47;100678.44;;;21.90
19568;BMP280;9930;49.240;8.548;2022-09-01T01:59:13;100696.59;;;21.94
19568;BMP280;9930;49.240;8.548;2022-09-01T02:01:43;100695.72;;;21.94
19568;BMP280;9930;49.240;8.548;2022-09-01T02:04:17;100697.47;;;21.92
19568;BMP280;9930;49.240;8.548;2022-09-01T02:06:49;100689.69;;;21.90
19568;BMP280;9930;49.240;8.548;2022-09-01T02:09:20;100683.66;;;21.82
19568;BMP280;9930;49.240;8.548;2022-09-01T02:11:51;100693.16;;;21.86
19568;BMP280;9930;49.240;8.548;2022-09-01T02:14:28;100687.97;;;21.82
19568;BMP280;9930;49.240;8.548;2022-09-01T02:16:58;100699.22;;;21.87
19568;BMP280;9930;49.240;8.548;2022-09-01T02:19:28;100696.63;;;21.85
19568;BMP280;9930;49.240;8.548;2022-09-01T02:21:58;100707.88;;;21.84
19568;BMP280;9930;49.240;8.548;2022-09-01T02:24:28;100702.69;;;21.81
19568;BMP280;9930;49.240;8.548;2022-09-01T02:27:00;100688.00;;;21.73
19568;BMP280;9930;49.240;8.548;2022-09-01T02:29:30;100695.78;;;21.79
19568;BMP280;9930;49.240;8.548;2022-09-01T02:31:59;100686.28;;;21.72
19568;BMP280;9930;49.240;8.548;2022-09-01T02:34:28;100698.38;;;21.77
19568;BMP280;9930;49.240;8.548;2022-09-01T02:37:01;100694.94;;;21.75
19568;BMP280;9930;49.240;8.548;2022-09-01T02:39:30;100701.88;;;21.73
19568;BMP280;9930;49.240;8.548;2022-09-01T02:41:59;100704.47;;;21.72
19568;BMP280;9930;49.240;8.548;2022-09-01T02:44:31;100687.19;;;21.64
19568;BMP280;9930;49.240;8.548;2022-09-01T02:46:59;100692.38;;;21.63
19568;BMP280;9930;49.240;8.548;2022-09-01T02:49:28;100688.06;;;21.60
19568;BMP280;9930;49.240;8.548;2022-09-01T02:51:59;100687.19;;;21.60
19568;BMP280;9930;49.240;8.548;2022-09-01T02:54:31;100693.25;;;21.60
19568;BMP280;9930;49.240;8.548;2022-09-01T02:56:59;100689.78;;;21.61
19568;BMP280;9930;49.240;8.548;2022-09-01T02:59:29;100694.13;;;21.59
19568;BMP280;9930;49.240;8.548;2022-09-01T03:01:58;100690.66;;;21.54
19568;BMP280;9930;49.240;8.548;2022-09-01T03:04:29;100696.72;;;21.56
19568;BMP280;9930;49.240;8.548;2022-09-01T03:07:00;100689.81;;;21.51
19568;BMP280;9930;49.240;8.548;2022-09-01T03:09:28;100700.19;;;21.52
19568;BMP280;9930;49.240;8.548;2022-09-01T03:12:03;100702.78;;;21.52
19568;BMP280;9930;49.240;8.548;2022-09-01T03:14:31;100691.56;;;21.44
19568;BMP280;9930;49.240;8.548;2022-09-01T03:16:58;100704.53;;;21.50
19568;BMP280;9930;49.240;8.548;2022-09-01T03:19:32;100697.63;;;21.46
19568;BMP280;9930;49.240;8.548;2022-09-01T03:22:11;100691.56;;;21.41
19568;BMP280;9930;49.240;8.548;2022-09-01T03:24:39;100712.31;;;21.47
19568;BMP280;9930;49.240;8.548;2022-09-01T03:27:12;100689.84;;;21.43
19568;BMP280;9930;49.240;8.548;2022-09-01T03:29:37;100706.25;;;21.48
19568;BMP280;9930;49.240;8.548;2022-09-01T03:32:07;100702.81;;;21.49
19568;BMP280;9930;49.240;8.548;2022-09-01T03:34:36;100703.66;;;21.48
19568;BMP280;9930;49.240;8.548;2022-09-01T03:37:01;100696.75;;;21.41
19568;BMP280;9930;49.240;8.548;2022-09-01T03:39:34;100690.72;;;21.41
19568;BMP280;9930;49.240;8.548;2022-09-01T03:42:00;100695.03;;;21.42
19568;BMP280;9930;49.240;8.548;2022-09-01T03:44:28;100698.50;;;21.38
19568;BMP280;9930;49.240;8.548;2022-09-01T03:46:55;100702.81;;;21.37
19568;BMP280;9930;49.240;8.548;2022-09-01T03:49:36;100701.09;;;21.33
19568;BMP280;9930;49.240;8.548;2022-09-01T03:52:04;100702.84;;;21.29
19568;BMP280;9930;49.240;8.548;2022-09-01T03:54:33;100701.13;;;21.27
19568;BMP280;9930;49.240;8.548;2022-09-01T03:56:59;100698.53;;;21.25
19568;BMP280;9930;49.240;8.548;2022-09-01T03:59:33;100696.78;;;21.23
19568;BMP280;9930;49.240;8.548;2022-09-01T04:01:59;100689.00;;;21.14
19568;BMP280;9930;49.240;8.548;2022-09-01T04:04:29;100696.75;;;21.20
19568;BMP280;9930;49.240;8.548;2022-09-01T04:06:58;100691.59;;;21.14
19568;BMP280;9930;49.240;8.548;2022-09-01T04:09:28;100692.44;;;21.13
19568;BMP280;9930;49.240;8.548;2022-09-01T04:11:58;100698.50;;;21.15
19568;BMP280;9930;49.240;8.548;2022-09-01T04:14:27;100706.28;;;21.13
19568;BMP280;9930;49.240;8.548;2022-09-01T04:16:53;100714.06;;;21.12
19568;BMP280;9930;49.240;8.548;2022-09-01T04:19:38;100710.63;;;21.10
19568;BMP280;9930;49.240;8.548;2022-09-01T04:22:04;100709.75;;;21.08
19568;BMP280;9930;49.240;8.548;2022-09-01T04:24:37;100689.00;;;20.98
19568;BMP280;9930;49.240;8.548;2022-09-01T04:27:07;100701.09;;;20.99
19568;BMP280;9930;49.240;8.548;2022-09-01T04:29:36;100709.75;;;21.05
19568;BMP280;9930;49.240;8.548;2022-09-01T04:32:09;100687.28;;;20.93
19568;BMP280;9930;49.240;8.548;2022-09-01T04:34:40;100703.69;;;21.01
19568;BMP280;9930;49.240;8.548;2022-09-01T04:37:17;100695.91;;;20.93
19568;BMP280;9930;49.240;8.548;2022-09-01T04:39:52;100694.19;;;20.91
19568;BMP280;9930;49.240;8.548;2022-09-01T04:42:19;100701.97;;;20.95
19568;BMP280;9930;49.240;8.548;2022-09-01T04:44:52;100699.38;;;20.88
19568;BMP280;9930;49.240;8.548;2022-09-01T04:47:22;100694.19;;;20.86
19568;BMP280;9930;49.240;8.548;2022-09-01T04:49:59;100703.69;;;20.89
19568;BMP280;9930;49.240;8.548;2022-09-01T04:52:27;100701.09;;;20.86
19568;BMP280;9930;49.240;8.548;2022-09-01T04:54:54;100709.75;;;20.88
19568;BMP280;9930;49.240;8.548;2022-09-01T04:57:22;100693.34;;;20.81
19568;BMP280;9930;49.240;8.548;2022-09-01T04:59:47;100707.16;;;20.86
19568;BMP280;9930;49.240;8.548;2022-09-01T05:02:15;100704.56;;;20.85
19568;BMP280;9930;49.240;8.548;2022-09-01T05:04:40;100703.69;;;20.84
19568;BMP280;9930;49.240;8.548;2022-09-01T05:07:09;100706.28;;;20.84
19568;BMP280;9930;49.240;8.548;2022-09-01T05:09:36;100708.88;;;20.84
19568;BMP280;9930;49.240;8.548;2022-09-01T05:12:04;100711.47;;;20.84
19568;BMP280;9930;49.240;8.548;2022-09-01T05:14:39;100690.78;;;20.78
19568;BMP280;9930;49.240;8.548;2022-09-01T05:17:14;100702.84;;;20.87
19568;BMP280;9930;49.240;8.548;2022-09-01T05:19:44;100694.22;;;20.80
19568;BMP280;9930;49.240;8.548;2022-09-01T05:22:14;100699.38;;;20.82
19568;BMP280;9930;49.240;8.548;2022-09-01T05:24:46;100717.53;;;20.88
19568;BMP280;9930;49.240;8.548;2022-09-01T05:27:14;100706.28;;;20.87
19568;BMP280;9930;49.240;8.548;2022-09-01T05:29:44;100698.50;;;20.81
19568;BMP280;9930;49.240;8.548;2022-09-01T05:32:13;100699.38;;;20.85
19568;BMP280;9930;49.240;8.548;2022-09-01T05:34:42;100691.59;;;20.88
19568;BMP280;9930;49.240;8.548;2022-09-01T05:37:11;100702.84;;;20.91
19568;BMP280;9930;49.240;8.548;2022-09-01T05:39:39;100701.97;;;20.92
19568;BMP280;9930;49.240;8.548;2022-09-01T05:42:07;100703.69;;;20.95
19568;BMP280;9930;49.240;8.548;2022-09-01T05:44:35;100701.09;;;20.96
19568;BMP280;9930;49.240;8.548;2022-09-01T05:47:03;100715.81;;;21.05
19568;BMP280;9930;49.240;8.548;2022-09-01T05:49:31;100711.47;;;21.02
19568;BMP280;9930;49.240;8.548;2022-09-01T05:52:02;100711.47;;;21.07
19568;BMP280;9930;49.240;8.548;2022-09-01T05:54:36;100722.72;;;21.14
19568;BMP280;9930;49.240;8.548;2022-09-01T05:57:03;100727.91;;;21.17
19568;BMP280;9930;49.240;8.548;2022-09-01T05:59:29;100732.22;;;21.18
19568;BMP280;9930;49.240;8.548;2022-09-01T06:02:03;100726.16;;;21.16
19568;BMP280;9930;49.240;8.548;2022-09-01T06:04:33;100739.16;;;21.25
19568;BMP280;9930;49.240;8.548;2022-09-01T06:07:03;100735.69;;;21.32
19568;BMP280;9930;49.240;8.548;2022-09-01T06:09:46;100733.09;;;21.38
19568;BMP280;9930;49.240;8.548;2022-09-01T06:12:16;100734.81;;;21.42
19568;BMP280;9930;49.240;8.548;2022-09-01T06:14:46;100738.28;;;21.47
19568;BMP280;9930;49.240;8.548;2022-09-01T06:17:13;100740.84;;;21.56
19568;BMP280;9930;49.240;8.548;2022-09-01T06:19:41;100726.09;;;21.69
19568;BMP280;9930;49.240;8.548;2022-09-01T06:22:07;100732.09;;;21.94
19568;BMP280;9930;49.240;8.548;2022-09-01T06:24:36;100728.56;;;22.16
19568;BMP280;9930;49.240;8.548;2022-09-01T06:27:07;100714.63;;;22.29
19568;BMP280;9930;49.240;8.548;2022-09-01T06:29:43;100729.16;;;22.62
19568;BMP280;9930;49.240;8.548;2022-09-01T06:32:13;100731.63;;;22.84
19568;BMP280;9930;49.240;8.548;2022-09-01T06:34:41;100734.03;;;23.10
19568;BMP280;9930;49.240;8.548;2022-09-01T06:37:10;100724.34;;;23.24
19568;BMP280;9930;49.240;8.548;2022-09-01T06:39:40;100727.63;;;23.46
19568;BMP280;9930;49.240;8.548;2022-09-01T06:42:06;100736.22;;;23.57
19568;BMP280;9930;49.240;8.548;2022-09-01T06:44:33;100729.22;;;23.61
19568;BMP280;9930;49.240;8.548;2022-09-01T06:47:02;100740.34;;;23.75
19568;BMP280;9930;49.240;8.548;2022-09-01T06:49:29;100741.19;;;23.77
19568;BMP280;9930;49.240;8.548;2022-09-01T06:52:02;100734.22;;;23.80
19568;BMP280;9930;49.240;8.548;2022-09-01T06:54:30;100735.94;;;23.81
19568;BMP280;9930;49.240;8.548;2022-09-01T06:57:02;100724.63;;;23.82
19568;BMP280;9930;49.240;8.548;2022-09-01T06:59:30;100734.06;;;23.93
19568;BMP280;9930;49.240;8.548;2022-09-01T07:01:59;100734.06;;;23.94
19568;BMP280;9930;49.240;8.548;2022-09-01T07:04:28;100742.59;;;24.05
19568;BMP280;9930;49.240;8.548;2022-09-01T07:06:58;100746.00;;;24.12
19568;BMP280;9930;49.240;8.548;2022-09-01T07:09:29;100742.50;;;24.13
19568;BMP280;9930;49.240;8.548;2022-09-01T07:11:58;100759.72;;;24.25
19568;BMP280;9930;49.240;8.548;2022-09-01T07:14:32;100744.09;;;24.25
19568;BMP280;9930;49.240;8.548;2022-09-01T07:17:01;100750.91;;;24.36
19568;BMP280;9930;49.240;8.548;2022-09-01T07:19:30;100752.59;;;24.40
19568;BMP280;9930;49.240;8.548;2022-09-01T07:21:59;100757.69;;;24.49
19568;BMP280;9930;49.240;8.548;2022-09-01T07:24:29;100761.16;;;24.50
19568;BMP280;9930;49.240;8.548;2022-09-01T07:26:58;100768.97;;;24.51
19568;BMP280;9930;49.240;8.548;2022-09-01T07:29:33;100768.13;;;24.48
19568;BMP280;9930;49.240;8.548;2022-09-01T07:32:00;100765.53;;;24.48
19568;BMP280;9930;49.240;8.548;2022-09-01T07:34:29;100757.72;;;24.48
19568;BMP280;9930;49.240;8.548;2022-09-01T07:36:59;100769.75;;;24.57
19568;BMP280;9930;49.240;8.548;2022-09-01T07:39:31;100761.13;;;24.53
19568;BMP280;9930;49.240;8.548;2022-09-01T07:42:01;100741.16;;;24.50
19568;BMP280;9930;49.240;8.548;2022-09-01T07:44:37;100766.94;;;24.70
19568;BMP280;9930;49.240;8.548;2022-09-01T07:47:04;100764.34;;;24.70
19568;BMP280;9930;49.240;8.548;2022-09-01T07:49:34;100763.53;;;24.67
19568;BMP280;9930;49.240;8.548;2022-09-01T07:52:04;100752.22;;;24.66
19568;BMP280;9930;49.240;8.548;2022-09-01T07:54:32;100759.88;;;24.77
19568;BMP280;9930;49.240;8.548;2022-09-01T07:56:59;100760.63;;;24.85
19568;BMP280;9930;49.240;8.548;2022-09-01T07:59:32;100754.53;;;24.86
19568;BMP280;9930;49.240;8.548;2022-09-01T08:02:00;100760.47;;;24.96
19568;BMP280;9930;49.240;8.548;2022-09-01T08:04:29;100763.06;;;24.99
19568;BMP280;9930;49.240;8.548;2022-09-01T08:06:59;100770.78;;;25.05
19568;BMP280;9930;49.240;8.548;2022-09-01T08:09:29;100762.06;;;25.06
19568;BMP280;9930;49.240;8.548;2022-09-01T08:11:56;100776.00;;;25.06
19568;BMP280;9930;49.240;8.548;2022-09-01T08:14:25;100769.97;;;25.01
19568;BMP280;9930;49.240;8.548;2022-09-01T08:16:51;100779.56;;;25.01
19568;BMP280;9930;49.240;8.548;2022-09-01T08:19:16;100775.25;;;24.98
19568;BMP280;9930;49.240;8.548;2022-09-01T08:21:43;100765.75;;;24.91
19568;BMP280;9930;49.240;8.548;2022-09-01T08:24:09;100779.59;;;24.99
19568;BMP280;9930;49.240;8.548;2022-09-01T08:26:35;100763.94;;;24.96
19568;BMP280;9930;49.240;8.548;2022-09-01T08:29:01;100776.91;;;25.04
19568;BMP280;9930;49.240;8.548;2022-09-01T08:31:29;100776.06;;;25.02
19568;BMP280;9930;49.240;8.548;2022-09-01T08:33:59;100770.03;;;24.98
19568;BMP280;9930;49.240;8.548;2022-09-01T08:36:30;100771.66;;;25.05
19568;BMP280;9930;49.240;8.548;2022-09-01T08:38:59;100767.28;;;25.06
19568;BMP280;9930;49.240;8.548;2022-09-01T08:41:44;100782.81;;;25.15
19568;BMP280;9930;49.240;8.548;2022-09-01T08:44:33;100787.16;;;25.14
19568;BMP280;9930;49.240;8.548;2022-09-01T08:47:10;100775.94;;;25.09
19568;BMP280;9930;49.240;8.548;2022-09-01T08:49:38;100775.84;;;25.15
19568;BMP280;9930;49.240;8.548;2022-09-01T08:52:39;100776.56;;;25.24
19568;BMP280;9930;49.240;8.548;2022-09-01T08:55:21;100769.47;;;25.32
19568;BMP280;9930;49.240;8.548;2022-09-01T08:57:59;100771.78;;;25.48
19568;BMP280;9930;49.240;8.548;2022-09-01T09:00:42;100774.16;;;25.61
19568;BMP280;9930;49.240;8.548;2022-09-01T09:03:52;100768.91;;;25.65
19568;BMP280;9930;49.240;8.548;2022-09-01T09:07:09;100762.69;;;25.71
19568;BMP280;9930;49.240;8.548;2022-09-01T09:09:55;100770.28;;;25.83
19568;BMP280;9930;49.240;8.548;2022-09-01T09:15:46;100768.97;;;26.04
19568;BMP280;9930;49.240;8.548;2022-09-01T09:18:47;100763.59;;;26.11
19568;BMP280;9930;49.240;8.548;2022-09-01T09:21:31;100771.19;;;26.24
19568;BMP280;9930;49.240;8.548;2022-09-01T09:24:32;100760.69;;;26.25
19568;BMP280;9930;49.240;8.548;2022-09-01T09:27:35;100766.69;;;26.32
19568;BMP280;9930;49.240;8.548;2022-09-01T09:30:05;100765.63;;;26.40
19568;BMP280;9930;49.240;8.548;2022-09-01T09:35:38;100768.00;;;26.51
19568;BMP280;9930;49.240;8.548;2022-09-01T09:38:16;100749.75;;;26.48
19568;BMP280;9930;49.240;8.548;2022-09-01T09:41:18;100756.38;;;26.63
19568;BMP280;9930;49.240;8.548;2022-09-01T09:44:22;100765.63;;;26.77
19568;BMP280;9930;49.240;8.548;2022-09-01T09:46:49;100738.34;;;26.88
19568;BMP280;9930;49.240;8.548;2022-09-01T09:49:34;100738.91;;;27.02
19568;BMP280;9930;49.240;8.548;2022-09-01T09:54:38;100742.81;;;27.20
19568;BMP280;9930;49.240;8.548;2022-09-01T09:59:38;100730.34;;;27.29
19568;BMP280;9930;49.240;8.548;2022-09-01T10:02:37;100734.63;;;27.32
19568;BMP280;9930;49.240;8.548;2022-09-01T10:08:03;100736.28;;;27.36
19568;BMP280;9930;49.240;8.548;2022-09-01T10:10:42;100725.88;;;27.33
19568;BMP280;9930;49.240;8.548;2022-09-01T10:13:22;100737.13;;;27.36
19568;BMP280;9930;49.240;8.548;2022-09-01T10:15:53;100735.38;;;27.37
19568;BMP280;9930;49.240;8.548;2022-09-01T10:18:26;100730.94;;;27.39
19568;BMP280;9930;49.240;8.548;2022-09-01T10:21:07;100731.78;;;27.41
19568;BMP280;9930;49.240;8.548;2022-09-01T10:23:35;100725.50;;;27.47
19568;BMP280;9930;49.240;8.548;2022-09-01T10:26:31;100723.41;;;27.59
19568;BMP280;9930;49.240;8.548;2022-09-01T10:29:22;100716.19;;;27.69
19568;BMP280;9930;49.240;8.548;2022-09-01T10:31:58;100715.94;;;27.78
19568;BMP280;9930;49.240;8.548;2022-09-01T10:34:36;100707.28;;;27.74
19568;BMP280;9930;49.240;8.548;2022-09-01T10:37:06;100714.47;;;27.68
19568;BMP280;9930;49.240;8.548;2022-09-01T10:39:32;100710.25;;;27.62
19568;BMP280;9930;49.240;8.548;2022-09-01T10:42:00;100711.94;;;27.65
19568;BMP280;9930;49.240;8.548;2022-09-01T10:44:58;100707.19;;;27.78
19568;BMP280;9930;49.240;8.548;2022-09-01T10:47:32;100697.56;;;27.78
19568;BMP280;9930;49.240;8.548;2022-09-01T10:50:21;100708.78;;;27.83
19568;BMP280;9930;49.240;8.548;2022-09-01T10:53:00;100707.16;;;27.79
19568;BMP280;9930;49.240;8.548;2022-09-01T10:55:42;100694.22;;;27.73
19568;BMP280;9930;49.240;8.548;2022-09-01T11:00:59;100696.63;;;27.81
19568;BMP280;9930;49.240;8.548;2022-09-01T11:03:35;100695.63;;;27.85
19568;BMP280;9930;49.240;8.548;2022-09-01T11:06:07;100694.47;;;27.95
19568;BMP280;9930;49.240;8.548;2022-09-01T11:13:48;100692.78;;;28.22
19568;BMP280;9930;49.240;8.548;2022-09-01T11:16:36;100689.19;;;28.26
19568;BMP280;9930;49.240;8.548;2022-09-01T11:19:38;100688.84;;;28.36
19568;BMP280;9930;49.240;8.548;2022-09-01T11:35:45;100664.13;;;28.70
19568;BMP280;9930;49.240;8.548;2022-09-01T11:38:15;100663.44;;;28.65
19568;BMP280;9930;49.240;8.548;2022-09-01T11:40:54;100664.78;;;28.77
19568;BMP280;9930;49.240;8.548;2022-09-01T11:43:32;100662.97;;;28.79
19568;BMP280;9930;49.240;8.548;2022-09-01T11:48:35;100662.16;;;28.77
19568;BMP280;9930;49.240;8.548;2022-09-01T11:51:02;100664.63;;;28.81
19568;BMP280;9930;49.240;8.548;2022-09-01T11:53:31;100666.19;;;28.88
19568;BMP280;9930;49.240;8.548;2022-09-01T11:56:15;100658.13;;;28.93
19568;BMP280;9930;49.240;8.548;2022-09-01T11:58:41;100650.31;;;28.91
19568;BMP280;9930;49.240;8.548;2022-09-01T12:01:23;100658.13;;;28.93
19568;BMP280;9930;49.240;8.548;2022-09-01T12:04:17;100653.44;;;28.76
19568;BMP280;9930;49.240;8.548;2022-09-01T12:06:59;100657.06;;;28.72
19568;BMP280;9930;49.240;8.548;2022-09-01T12:09:43;100659.84;;;28.67
19568;BMP280;9930;49.240;8.548;2022-09-01T12:12:35;100650.09;;;28.71
19568;BMP280;9930;49.240;8.548;2022-09-01T12:17:36;100640.66;;;28.92
19568;BMP280;9930;49.240;8.548;2022-09-01T12:20:30;100639.44;;;29.02
19568;BMP280;9930;49.240;8.548;2022-09-01T12:22:59;100634.66;;;29.13
19568;BMP280;9930;49.240;8.548;2022-09-01T12:25:32;100637.66;;;29.27
19568;BMP280;9930;49.240;8.548;2022-09-01T12:28:04;100635.44;;;29.40
19568;BMP280;9930;49.240;8.548;2022-09-01T12:30:34;100642.16;;;29.49
19568;BMP280;9930;49.240;8.548;2022-09-01T12:33:10;100641.19;;;29.51
19568;BMP280;9930;49.240;8.548;2022-09-01T12:35:38;100629.06;;;29.47
19568;BMP280;9930;49.240;8.548;2022-09-01T12:38:22;100617.22;;;29.36
19568;BMP280;9930;49.240;8.548;2022-09-01T12:40:58;100622.88;;;29.25
19568;BMP280;9930;49.240;8.548;2022-09-01T12:43:39;100620.47;;;29.19
19568;BMP280;9930;49.240;8.548;2022-09-01T12:46:06;100623.34;;;29.11
19568;BMP280;9930;49.240;8.548;2022-09-01T12:48:39;100629.00;;;29.00
19568;BMP280;9930;49.240;8.548;2022-09-01T12:51:21;100618.00;;;28.89
19568;BMP280;9930;49.240;8.548;2022-09-01T12:53:54;100615.47;;;28.86
19568;BMP280;9930;49.240;8.548;2022-09-01T12:56:35;100614.69;;;28.84
19568;BMP280;9930;49.240;8.548;2022-09-01T12:59:21;100621.59;;;28.87
19568;BMP280;9930;49.240;8.548;2022-09-01T13:01:50;100610.13;;;28.89
19568;BMP280;9930;49.240;8.548;2022-09-01T13:07:04;100609.31;;;28.87
19568;BMP280;9930;49.240;8.548;2022-09-01T13:09:30;100614.34;;;28.93
19568;BMP280;9930;49.240;8.548;2022-09-01T13:12:20;100615.47;;;28.86
19568;BMP280;9930;49.240;8.548;2022-09-01T13:14:46;100611.94;;;28.87
19568;BMP280;9930;49.240;8.548;2022-09-01T13:17:12;100607.66;;;28.85
19568;BMP280;9930;49.240;8.548;2022-09-01T13:19:40;100596.38;;;28.81
19568;BMP280;9930;49.240;8.548;2022-09-01T13:22:06;100589.28;;;28.85
19568;BMP280;9930;49.240;8.548;2022-09-01T13:24:32;100599.41;;;28.95
19568;BMP280;9930;49.240;8.548;2022-09-01T13:27:01;100594.91;;;28.99
19568;BMP280;9930;49.240;8.548;2022-09-01T13:29:31;100592.22;;;29.00
19568;BMP280;9930;49.240;8.548;2022-09-01T13:31:59;100583.53;;;28.98
19568;BMP280;9930;49.240;8.548;2022-09-01T13:34:28;100582.53;;;29.02
19568;BMP280;9930;49.240;8.548;2022-09-01T13:36:55;100584.28;;;29.02
19568;BMP280;9930;49.240;8.548;2022-09-01T13:39:26;100589.44;;;29.05
19568;BMP280;9930;49.240;8.548;2022-09-01T13:42:00;100577.09;;;29.07
19568;BMP280;9930;49.240;8.548;2022-09-01T13:44:29;100577.84;;;29.11
19568;BMP280;9930;49.240;8.548;2022-09-01T13:46:59;100575.84;;;29.17
19568;BMP280;9930;49.240;8.548;2022-09-01T13:49:26;100581.00;;;29.20
19568;BMP280;9930;49.240;8.548;2022-09-01T13:52:02;100552.66;;;29.05
19568;BMP280;9930;49.240;8.548;2022-09-01T13:54:32;100577.56;;;29.18
19568;BMP280;9930;49.240;8.548;2022-09-01T13:57:02;100552.44;;;29.11
19568;BMP280;9930;49.240;8.548;2022-09-01T13:59:29;100567.56;;;29.28
19568;BMP280;9930;49.240;8.548;2022-09-01T14:02:00;100568.38;;;29.30
19568;BMP280;9930;49.240;8.548;2022-09-01T14:04:29;100560.44;;;29.31
19568;BMP280;9930;49.240;8.548;2022-09-01T14:06:59;100555.28;;;29.28
19568;BMP280;9930;49.240;8.548;2022-09-01T14:09:35;100571.06;;;29.28
19568;BMP280;9930;49.240;8.548;2022-09-01T14:12:03;100565.19;;;29.22
19568;BMP280;9930;49.240;8.548;2022-09-01T14:14:32;100558.38;;;29.16
19568;BMP280;9930;49.240;8.548;2022-09-01T14:16:59;100559.34;;;29.14
19568;BMP280;9930;49.240;8.548;2022-09-01T14:19:29;100566.16;;;29.19
19568;BMP280;9930;49.240;8.548;2022-09-01T14:22:03;100552.38;;;29.13
19568;BMP280;9930;49.240;8.548;2022-09-01T14:24:33;100559.13;;;29.20
19568;BMP280;9930;49.240;8.548;2022-09-01T14:27:01;100555.63;;;29.19
19568;BMP280;9930;49.240;8.548;2022-09-01T14:29:31;100550.38;;;29.19
19568;BMP280;9930;49.240;8.548;2022-09-01T14:31:59;100547.59;;;29.24
19568;BMP280;9930;49.240;8.548;2022-09-01T14:34:29;100550.09;;;29.27
19568;BMP280;9930;49.240;8.548;2022-09-01T14:36:57;100549.88;;;29.33
19568;BMP280;9930;49.240;8.548;2022-09-01T14:39:24;100551.63;;;29.32
19568;BMP280;9930;49.240;8.548;2022-09-01T14:41:49;100555.25;;;29.30
19568;BMP280;9930;49.240;8.548;2022-09-01T14:44:15;100532.69;;;29.24
19568;BMP280;9930;49.240;8.548;2022-09-01T14:46:43;100549.19;;;29.28
19568;BMP280;9930;49.240;8.548;2022-09-01T14:49:09;100543.94;;;29.28
19568;BMP280;9930;49.240;8.548;2022-09-01T14:51:36;100537.81;;;29.27
19568;BMP280;9930;49.240;8.548;2022-09-01T14:54:03;100526.44;;;29.27
19568;BMP280;9930;49.240;8.548;2022-09-01T14:56:29;100528.28;;;29.25
19568;BMP280;9930;49.240;8.548;2022-09-01T14:58:58;100520.47;;;29.23
19568;BMP280;9930;49.240;8.548;2022-09-01T15:01:29;100519.38;;;29.29
19568;BMP280;9930;49.240;8.548;2022-09-01T15:03:59;100509.03;;;29.24
19568;BMP280;9930;49.240;8.548;2022-09-01T15:06:27;100522.63;;;29.36
19568;BMP280;9930;49.240;8.548;2022-09-01T15:08:59;100520.84;;;29.36
19568;BMP280;9930;49.240;8.548;2022-09-01T15:11:28;100519.06;;;29.37
19568;BMP280;9930;49.240;8.548;2022-09-01T15:13:59;100513.75;;;29.38
19568;BMP280;9930;49.240;8.548;2022-09-01T15:16:29;100515.53;;;29.38
19568;BMP280;9930;49.240;8.548;2022-09-01T15:18:56;100512.16;;;29.34
19568;BMP280;9930;49.240;8.548;2022-09-01T15:21:29;100513.09;;;29.33
19568;BMP280;9930;49.240;8.548;2022-09-01T15:24:03;100516.56;;;29.33